createdAt,value
2018-12-27T00:02:17.635Z,95609.95
2018-12-27T00:04:45.577Z,95616.14
2018-12-27T00:07:10.989Z,95612.86
2018-12-27T00:09:37.624Z,95621.07
2018-12-27T00:12:04.270Z,95620.82
2018-12-27T00:14:30.933Z,95617.64
2018-12-27T00:16:57.620Z,95618.91
2018-12-27T00:19:24.276Z,95612.71
2018-12-27T00:21:50.922Z,95607.93
2018-12-27T00:24:17.578Z,95610.43
2018-12-27T00:26:44.227Z,95611.59
2018-12-27T00:29:10.883Z,95612.48
2018-12-27T00:31:37.532Z,95615.00
2018-12-27T00:34:04.179Z,95614.86
2018-12-27T00:36:30.871Z,95616.38
2018-12-27T00:38:57.521Z,95609.82
2018-12-27T00:41:24.169Z,95614.50
2018-12-27T00:43:50.954Z,95611.34
2018-12-27T00:46:17.595Z,95612.71
2018-12-27T00:48:44.284Z,95617.53
2018-12-27T00:51:10.926Z,95620.16
2018-12-27T00:53:37.570Z,95613.23
2018-12-27T00:56:04.245Z,95619.42
2018-12-27T00:58:30.889Z,95618.54
2018-12-27T01:00:57.537Z,95620.18
2018-12-27T01:03:24.237Z,95618.92
2018-12-27T01:05:50.869Z,95618.31
2018-12-27T01:08:17.520Z,95613.48
2018-12-27T01:10:44.169Z,95616.77
2018-12-27T01:13:10.818Z,95619.68
2018-12-27T01:15:37.457Z,95625.37
2018-12-27T01:18:04.129Z,95618.41
2018-12-27T01:20:30.822Z,95620.69
2018-12-27T01:22:57.465Z,95614.12
2018-12-27T01:25:24.182Z,95615.38
2018-12-27T01:27:50.844Z,95615.62
2018-12-27T01:30:17.460Z,95610.45
2018-12-27T01:32:44.117Z,95606.18
2018-12-27T01:35:10.760Z,95612.10
2018-12-27T01:37:37.409Z,95611.72
2018-12-27T01:40:04.106Z,95603.86
2018-12-27T01:42:30.749Z,95604.75
2018-12-27T01:44:57.380Z,95603.61
2018-12-27T01:47:24.036Z,95595.05
2018-12-27T01:49:50.683Z,95595.30
2018-12-27T01:52:17.372Z,95602.11
2018-12-27T01:54:44.006Z,95594.14
2018-12-27T01:57:10.736Z,95597.58
2018-12-27T01:59:37.430Z,95595.66
2018-12-27T02:02:04.072Z,95591.25
2018-12-27T02:04:30.713Z,95588.20
2018-12-27T02:06:57.366Z,95586.58
2018-12-27T02:09:24.011Z,95588.73
2018-12-27T02:11:50.648Z,95587.58
2018-12-27T02:14:17.297Z,95583.02
2018-12-27T02:16:43.937Z,95585.80
2018-12-27T02:19:10.595Z,95578.37
2018-12-27T02:21:37.246Z,95579.25
2018-12-27T02:24:03.918Z,95578.37
2018-12-27T02:26:30.546Z,95579.13
2018-12-27T02:28:57.215Z,95581.52
2018-12-27T02:31:23.901Z,95583.03
2018-12-27T02:33:53.740Z,95586.95
2018-12-27T02:36:20.396Z,95589.11
2018-12-27T02:38:47.090Z,95584.05
2018-12-27T02:41:13.783Z,95572.30
2018-12-27T02:43:40.420Z,95568.73
2018-12-27T02:46:07.109Z,95561.18
2018-12-27T02:48:33.759Z,95563.98
2018-12-27T02:51:00.486Z,95560.67
2018-12-27T02:53:27.179Z,95564.22
2018-12-27T02:55:53.840Z,95565.86
2018-12-27T02:58:20.497Z,95563.18
2018-12-27T03:00:47.194Z,95555.75
2018-12-27T03:03:13.836Z,95563.10
2018-12-27T03:05:40.533Z,95556.89
2018-12-27T03:08:07.183Z,95559.03
2018-12-27T03:10:33.872Z,95553.98
2018-12-27T03:13:00.511Z,95559.03
2018-12-27T03:15:27.205Z,95555.24
2018-12-27T03:17:53.850Z,95565.98
2018-12-27T03:20:20.493Z,95568.39
2018-12-27T03:22:47.206Z,95567.00
2018-12-27T03:25:13.844Z,95569.76
2018-12-27T03:27:40.549Z,95573.67
2018-12-27T03:30:07.191Z,95566.34
2018-12-27T03:32:33.892Z,95569.65
2018-12-27T03:35:00.559Z,95571.67
2018-12-27T03:37:27.230Z,95581.80
2018-12-27T03:39:53.865Z,95575.69
2018-12-27T03:42:20.573Z,95580.77
2018-12-27T03:44:47.209Z,95573.81
2018-12-27T03:47:13.851Z,95580.41
2018-12-27T03:49:40.518Z,95580.25
2018-12-27T03:52:07.156Z,95589.11
2018-12-27T03:54:33.806Z,95590.34
2018-12-27T03:57:00.439Z,95593.52
2018-12-27T03:59:27.134Z,95595.67
2018-12-27T04:01:53.887Z,95602.63
2018-12-27T04:04:20.537Z,95608.81
2018-12-27T04:06:47.167Z,95612.98
2018-12-27T04:09:13.826Z,95619.16
2018-12-27T04:11:40.476Z,95615.91
2018-12-27T04:14:07.117Z,95615.62
2018-12-27T04:16:33.761Z,95626.27
2018-12-27T04:19:00.452Z,95632.85
2018-12-27T04:21:27.140Z,95630.69
2018-12-27T04:23:53.931Z,95636.52
2018-12-27T04:26:20.574Z,95641.97
2018-12-27T04:28:47.274Z,95638.55
2018-12-27T04:31:13.969Z,95644.61
2018-12-27T04:33:40.604Z,95638.16
2018-12-27T04:36:07.257Z,95642.86
2018-12-27T04:38:33.953Z,95650.31
2018-12-27T04:41:00.644Z,95660.67
2018-12-27T04:43:27.298Z,95658.91
2018-12-27T04:45:53.936Z,95663.44
2018-12-27T04:48:20.698Z,95663.84
2018-12-27T04:50:47.402Z,95666.02
2018-12-27T04:53:14.038Z,95679.03
2018-12-27T04:55:40.738Z,95675.75
2018-12-27T04:58:07.397Z,95675.98
2018-12-27T05:00:34.037Z,95680.03
2018-12-27T05:03:00.697Z,95680.98
2018-12-27T05:05:27.348Z,95674.55
2018-12-27T05:07:54.053Z,95682.40
2018-12-27T05:10:20.729Z,95684.18
2018-12-27T05:12:47.375Z,95686.31
2018-12-27T05:15:14.069Z,95686.31
2018-12-27T05:17:40.705Z,95687.84
2018-12-27T05:20:07.353Z,95690.11
2018-12-27T05:22:34.047Z,95699.19
2018-12-27T05:25:00.700Z,95695.53
2018-12-27T05:27:27.335Z,95695.77
2018-12-27T05:29:53.987Z,95704.63
2018-12-27T05:32:20.677Z,95701.98
2018-12-27T05:34:47.315Z,95703.63
2018-12-27T05:37:13.960Z,95707.16
2018-12-27T05:39:40.617Z,95715.11
2018-12-27T05:42:07.316Z,95714.98
2018-12-27T05:44:33.949Z,95722.70
2018-12-27T05:47:00.656Z,95728.48
2018-12-27T05:49:27.298Z,95733.42
2018-12-27T05:51:54.091Z,95737.59
2018-12-27T05:54:20.789Z,95743.02
2018-12-27T05:56:47.441Z,95743.02
2018-12-27T05:59:14.105Z,95747.94
2018-12-27T06:01:40.761Z,95749.47
2018-12-27T06:04:07.470Z,95748.19
2018-12-27T06:06:34.121Z,95756.17
2018-12-27T06:09:00.759Z,95750.72
2018-12-27T06:11:27.411Z,95758.58
2018-12-27T06:13:54.115Z,95761.84
2018-12-27T06:16:20.763Z,95765.63
2018-12-27T06:18:47.410Z,95766.00
2018-12-27T06:21:14.062Z,95766.00
2018-12-27T06:23:40.714Z,95774.09
2018-12-27T06:26:07.353Z,95767.53
2018-12-27T06:28:34.005Z,95768.02
2018-12-27T06:31:00.653Z,95774.72
2018-12-27T06:33:27.325Z,95765.52
2018-12-27T06:35:53.970Z,95760.06
2018-12-27T06:38:20.746Z,95761.33
2018-12-27T06:40:47.385Z,95772.20
2018-12-27T06:43:14.049Z,95769.69
2018-12-27T06:45:40.688Z,95768.41
2018-12-27T06:48:07.396Z,95768.77
2018-12-27T06:50:34.034Z,95774.45
2018-12-27T06:53:00.720Z,95768.28
2018-12-27T06:55:27.466Z,95777.76
2018-12-27T06:57:54.133Z,95772.81
2018-12-27T07:00:20.803Z,95777.86
2018-12-27T07:02:47.451Z,95785.08
2018-12-27T07:05:15.549Z,95781.15
2018-12-27T07:07:40.756Z,95789.36
2018-12-27T07:10:07.447Z,95779.13
2018-12-27T07:12:34.136Z,95787.09
2018-12-27T07:15:00.778Z,95782.55
2018-12-27T07:17:27.473Z,95792.52
2018-12-27T07:19:54.177Z,95790.50
2018-12-27T07:22:20.821Z,95790.50
2018-12-27T07:24:47.456Z,95789.63
2018-12-27T07:27:14.103Z,95787.47
2018-12-27T07:29:40.807Z,95794.91
2018-12-27T07:32:07.453Z,95798.45
2018-12-27T07:34:34.162Z,95797.19
2018-12-27T07:37:00.815Z,95798.72
2018-12-27T07:39:27.459Z,95797.44
2018-12-27T07:41:54.153Z,95797.95
2018-12-27T07:44:20.789Z,95803.37
2018-12-27T07:46:47.475Z,95807.81
2018-12-27T07:49:14.109Z,95809.20
2018-12-27T07:51:40.988Z,95807.91
2018-12-27T07:54:07.607Z,95811.47
2018-12-27T07:56:34.265Z,95808.44
2018-12-27T07:59:00.963Z,95814.50
2018-12-27T08:01:27.603Z,95817.39
2018-12-27T08:03:54.309Z,95817.16
2018-12-27T08:06:20.949Z,95817.91
2018-12-27T08:08:47.589Z,95821.08
2018-12-27T08:11:14.294Z,95828.65
2018-12-27T08:13:40.938Z,95831.95
2018-12-27T08:16:07.584Z,95837.89
2018-12-27T08:18:34.280Z,95835.11
2018-12-27T08:21:00.932Z,95828.91
2018-12-27T08:23:27.630Z,95835.23
2018-12-27T08:25:54.266Z,95836.48
2018-12-27T08:28:20.957Z,95842.55
2018-12-27T08:30:47.646Z,95837.75
2018-12-27T08:33:14.317Z,95832.68
2018-12-27T08:35:42.379Z,95838.24
2018-12-27T08:38:07.649Z,95843.43
2018-12-27T08:40:34.338Z,95835.22
2018-12-27T08:43:00.986Z,95840.14
2018-12-27T08:45:27.797Z,95831.93
2018-12-27T08:47:54.442Z,95836.61
2018-12-27T08:50:21.077Z,95832.30
2018-12-27T08:52:47.734Z,95833.84
2018-12-27T08:55:14.466Z,95835.97
2018-12-27T08:57:41.118Z,95824.08
2018-12-27T09:00:07.767Z,95838.13
2018-12-27T09:02:34.454Z,95829.92
2018-12-27T09:05:01.136Z,95824.23
2018-12-27T09:07:27.829Z,95830.94
2018-12-27T09:09:54.534Z,95819.44
2018-12-27T09:12:21.224Z,95823.09
2018-12-27T09:14:47.875Z,95819.55
2018-12-27T09:17:14.526Z,95821.95
2018-12-27T09:19:41.239Z,95816.66
2018-12-27T09:22:07.925Z,95820.45
2018-12-27T09:24:34.542Z,95827.62
2018-12-27T09:27:01.186Z,95826.23
2018-12-27T09:29:27.844Z,95822.84
2018-12-27T09:31:54.480Z,95828.66
2018-12-27T09:34:21.128Z,95815.87
2018-12-27T09:36:47.782Z,95828.27
2018-12-27T09:39:14.420Z,95826.39
2018-12-27T09:41:41.073Z,95813.99
2018-12-27T09:44:07.712Z,95812.34
2018-12-27T09:46:34.357Z,95824.73
2018-12-27T09:49:01.006Z,95808.56
2018-12-27T09:51:27.656Z,95813.23
2018-12-27T09:53:54.291Z,95814.63
2018-12-27T09:56:20.957Z,95816.77
2018-12-27T09:58:47.589Z,95819.80
2018-12-27T10:01:14.254Z,95813.75
2018-12-27T10:03:40.902Z,95809.30
2018-12-27T10:06:07.561Z,95804.14
2018-12-27T10:08:34.215Z,95803.24
2018-12-27T10:11:00.866Z,95801.48
2018-12-27T10:13:27.510Z,95791.38
2018-12-27T10:15:54.169Z,95793.78
2018-12-27T10:18:20.809Z,95790.62
2018-12-27T10:20:47.463Z,95784.67
2018-12-27T10:23:14.113Z,95778.75
2018-12-27T10:25:40.769Z,95775.70
2018-12-27T10:28:07.427Z,95777.95
2018-12-27T10:30:34.094Z,95772.27
2018-12-27T10:33:00.736Z,95764.47
2018-12-27T10:35:27.409Z,95760.92
2018-12-27T10:37:54.097Z,95764.33
2018-12-27T10:40:20.730Z,95759.66
2018-12-27T10:42:47.395Z,95758.27
2018-12-27T10:45:14.177Z,95745.00
2018-12-27T10:47:40.820Z,95748.17
2018-12-27T10:50:07.467Z,95740.20
2018-12-27T10:52:34.114Z,95740.07
2018-12-27T10:55:00.757Z,95738.29
2018-12-27T10:57:27.419Z,95742.97
2018-12-27T10:59:54.098Z,95746.14
2018-12-27T11:02:20.731Z,95745.86
2018-12-27T11:04:47.392Z,95741.70
2018-12-27T11:07:14.049Z,95742.45
2018-12-27T11:09:40.797Z,95732.19
2018-12-27T11:12:08.539Z,95726.89
2018-12-27T11:14:35.198Z,95736.90
2018-12-27T11:17:01.838Z,95724.66
2018-12-27T11:19:28.488Z,95727.04
2018-12-27T11:21:55.144Z,95726.52
2018-12-27T11:24:21.801Z,95724.77
2018-12-27T11:26:48.436Z,95725.50
2018-12-27T11:29:15.096Z,95718.20
2018-12-27T11:31:41.748Z,95720.08
2018-12-27T11:34:09.018Z,95721.46
2018-12-27T11:36:35.686Z,95728.91
2018-12-27T11:39:02.337Z,95727.54
2018-12-27T11:41:28.979Z,95726.77
2018-12-27T11:43:55.626Z,95725.65
2018-12-27T11:46:22.277Z,95730.44
2018-12-27T11:48:48.922Z,95732.84
2018-12-27T11:51:15.573Z,95727.67
2018-12-27T11:53:42.221Z,95729.17
2018-12-27T11:56:08.865Z,95725.66
2018-12-27T11:58:35.522Z,95732.47
2018-12-27T12:01:02.204Z,95736.14
2018-12-27T12:03:28.856Z,95731.34
2018-12-27T12:05:55.516Z,95742.56
2018-12-27T12:08:22.161Z,95743.20
2018-12-27T12:10:48.856Z,95744.97
2018-12-27T12:13:15.509Z,95755.45
2018-12-27T12:15:42.149Z,95747.36
2018-12-27T12:18:08.806Z,95752.92
2018-12-27T12:20:35.787Z,95748.02
2018-12-27T12:23:02.139Z,95745.36
2018-12-27T12:25:28.789Z,95749.02
2018-12-27T12:27:55.480Z,95746.31
2018-12-27T12:30:22.121Z,95750.09
2018-12-27T12:32:48.776Z,95749.86
2018-12-27T12:35:15.421Z,95753.80
2018-12-27T12:37:42.125Z,95741.55
2018-12-27T12:40:08.765Z,95747.48
2018-12-27T12:42:35.476Z,95751.54
2018-12-27T12:45:02.107Z,95752.66
2018-12-27T12:47:28.796Z,95743.08
2018-12-27T12:49:55.677Z,95747.87
2018-12-27T12:52:22.318Z,95748.42
2018-12-27T12:54:49.931Z,95747.71
2018-12-27T12:57:16.585Z,95758.18
2018-12-27T12:59:43.235Z,95753.66
2018-12-27T13:02:09.887Z,95759.05
2018-12-27T13:04:36.529Z,95762.09
2018-12-27T13:07:03.247Z,95756.52
2018-12-27T13:09:29.996Z,95766.73
2018-12-27T13:11:56.640Z,95760.79
2018-12-27T13:14:23.294Z,95757.50
2018-12-27T13:16:49.949Z,95759.51
2018-12-27T13:19:16.595Z,95765.17
2018-12-27T13:21:43.320Z,95760.51
2018-12-27T13:24:09.992Z,95765.44
2018-12-27T13:26:36.652Z,95762.41
2018-12-27T13:29:03.286Z,95763.66
2018-12-27T13:31:29.939Z,95756.33
2018-12-27T13:33:56.634Z,95757.83
2018-12-27T13:36:25.459Z,95755.31
2018-12-27T13:38:49.907Z,95764.80
2018-12-27T13:41:16.558Z,95760.00
2018-12-27T13:43:43.213Z,95762.15
2018-12-27T13:46:09.920Z,95768.35
2018-12-27T13:48:36.659Z,95774.16
2018-12-27T13:51:03.312Z,95764.19
2018-12-27T13:53:29.977Z,95768.08
2018-12-27T13:55:56.634Z,95762.13
2018-12-27T13:58:23.284Z,95767.97
2018-12-27T14:00:49.975Z,95771.23
2018-12-27T14:03:16.625Z,95764.93
2018-12-27T14:05:43.262Z,95760.59
2018-12-27T14:08:09.904Z,95765.41
2018-12-27T14:10:36.551Z,95765.19
2018-12-27T14:13:03.207Z,95765.18
2018-12-27T14:15:29.861Z,95764.42
2018-12-27T14:17:56.517Z,95768.08
2018-12-27T14:20:23.169Z,95771.14
2018-12-27T14:22:49.828Z,95772.38
2018-12-27T14:25:16.464Z,95767.70
2018-12-27T14:27:43.161Z,95776.42
2018-12-27T14:30:09.801Z,95777.83
2018-12-27T14:32:36.489Z,95778.55
2018-12-27T14:35:03.144Z,95782.34
2018-12-27T14:37:29.854Z,95779.34
2018-12-27T14:39:56.495Z,95786.17
2018-12-27T14:42:23.141Z,95785.39
2018-12-27T14:44:49.793Z,95782.86
2018-12-27T14:47:16.434Z,95782.48
2018-12-27T14:49:43.093Z,95775.02
2018-12-27T14:52:09.750Z,95786.14
2018-12-27T14:54:36.404Z,95792.70
2018-12-27T14:57:03.048Z,95783.86
2018-12-27T14:59:29.825Z,95785.00
2018-12-27T15:01:56.465Z,95783.23
2018-12-27T15:04:23.119Z,95786.87
2018-12-27T15:06:49.817Z,95789.77
2018-12-27T15:09:16.500Z,95784.23
2018-12-27T15:11:43.158Z,95792.98
2018-12-27T15:14:09.800Z,95792.33
2018-12-27T15:16:36.505Z,95790.94
2018-12-27T15:19:03.160Z,95797.41
2018-12-27T15:21:29.810Z,95797.52
2018-12-27T15:23:56.440Z,95797.91
2018-12-27T15:26:23.099Z,95798.29
2018-12-27T15:28:49.752Z,95801.30
2018-12-27T15:31:16.400Z,95798.92
2018-12-27T15:33:43.051Z,95796.38
2018-12-27T15:36:09.679Z,95798.41
2018-12-27T15:38:36.353Z,95797.53
2018-12-27T15:41:03.021Z,95806.38
2018-12-27T15:43:29.680Z,95806.23
2018-12-27T15:45:56.325Z,95805.86
2018-12-27T15:48:23.100Z,95806.12
2018-12-27T15:50:49.743Z,95799.81
2018-12-27T15:53:16.383Z,95795.13
2018-12-27T15:55:43.065Z,95805.61
2018-12-27T15:58:09.715Z,95799.81
2018-12-27T16:00:36.418Z,95809.28
2018-12-27T16:03:03.061Z,95803.45
2018-12-27T16:05:29.703Z,95806.63
2018-12-27T16:07:56.352Z,95805.48
2018-12-27T16:10:22.994Z,95809.92
2018-12-27T16:12:49.687Z,95816.50
2018-12-27T16:15:19.343Z,95815.11
2018-12-27T16:17:46.001Z,95822.44
2018-12-27T16:20:12.660Z,95815.97
2018-12-27T16:22:39.309Z,95820.77
2018-12-27T16:25:06.001Z,95815.73
2018-12-27T16:27:32.646Z,95820.66
2018-12-27T16:29:59.304Z,95817.12
2018-12-27T16:32:25.991Z,95821.30
2018-12-27T16:34:52.690Z,95823.17
2018-12-27T16:37:19.340Z,95823.94
2018-12-27T16:39:46.078Z,95819.27
2018-12-27T16:42:12.716Z,95823.94
2018-12-27T16:44:39.409Z,95819.89
2018-12-27T16:47:06.054Z,95824.20
2018-12-27T16:49:32.782Z,95811.69
2018-12-27T16:51:59.427Z,95820.91
2018-12-27T16:54:26.065Z,95818.36
2018-12-27T16:56:52.728Z,95818.89
2018-12-27T16:59:19.389Z,95815.09
2018-12-27T17:01:46.078Z,95825.31
2018-12-27T17:04:12.719Z,95826.22
2018-12-27T17:06:39.357Z,95828.87
2018-12-27T17:09:06.024Z,95823.82
2018-12-27T17:11:32.661Z,95829.27
2018-12-27T17:13:59.325Z,95824.56
2018-12-27T17:16:25.975Z,95830.14
2018-12-27T17:18:52.646Z,95825.22
2018-12-27T17:21:19.301Z,95826.60
2018-12-27T17:23:45.950Z,95827.36
2018-12-27T17:26:12.648Z,95825.59
2018-12-27T17:28:39.299Z,95828.36
2018-12-27T17:31:05.991Z,95822.91
2018-12-27T17:33:32.631Z,95825.34
2018-12-27T17:35:59.324Z,95820.56
2018-12-27T17:38:26.018Z,95823.30
2018-12-27T17:40:52.658Z,95814.45
2018-12-27T17:43:19.373Z,95814.45
2018-12-27T17:45:46.034Z,95820.77
2018-12-27T17:48:12.674Z,95824.70
2018-12-27T17:50:39.330Z,95830.14
2018-12-27T17:53:06.058Z,95818.52
2018-12-27T17:55:32.707Z,95819.38
2018-12-27T17:57:59.363Z,95815.11
2018-12-27T18:00:26.060Z,95815.73
2018-12-27T18:02:52.695Z,95816.50
2018-12-27T18:05:19.336Z,95812.18
2018-12-27T18:07:46.015Z,95818.39
2018-12-27T18:10:12.710Z,95814.98
2018-12-27T18:12:39.353Z,95822.44
2018-12-27T18:15:05.990Z,95820.53
2018-12-27T18:17:32.654Z,95819.77
2018-12-27T18:19:59.290Z,95827.11
2018-12-27T18:22:25.937Z,95822.69
2018-12-27T18:24:52.587Z,95823.45
2018-12-27T18:27:19.314Z,95828.88
2018-12-27T18:29:45.957Z,95832.29
2018-12-27T18:32:12.597Z,95832.16
2018-12-27T18:34:39.319Z,95824.44
2018-12-27T18:37:05.963Z,95827.11
2018-12-27T18:39:32.614Z,95826.72
2018-12-27T18:41:59.335Z,95826.59
2018-12-27T18:44:25.976Z,95829.02
2018-12-27T18:46:52.664Z,95824.95
2018-12-27T18:49:20.742Z,95822.69
2018-12-27T18:51:46.011Z,95826.45
2018-12-27T18:54:12.729Z,95827.74
2018-12-27T18:56:39.386Z,95823.55
2018-12-27T18:59:06.028Z,95829.26
2018-12-27T19:01:32.727Z,95830.50
2018-12-27T19:03:59.377Z,95827.88
2018-12-27T19:06:26.020Z,95832.16
2018-12-27T19:08:53.307Z,95822.94
2018-12-27T19:11:19.316Z,95824.72
2018-12-27T19:13:45.982Z,95821.16
2018-12-27T19:16:12.643Z,95824.95
2018-12-27T19:18:39.305Z,95824.08
2018-12-27T19:21:05.943Z,95821.55
2018-12-27T19:23:32.648Z,95821.41
2018-12-27T19:25:59.289Z,95818.52
2018-12-27T19:28:25.932Z,95819.77
2018-12-27T19:30:52.596Z,95830.13
2018-12-27T19:33:19.244Z,95832.80
2018-12-27T19:35:45.941Z,95828.62
2018-12-27T19:38:12.633Z,95828.48
2018-12-27T19:40:39.270Z,95827.98
2018-12-27T19:43:05.922Z,95828.62
2018-12-27T19:45:32.567Z,95820.78
2018-12-27T19:47:59.213Z,95820.39
2018-12-27T19:50:25.870Z,95812.57
2018-12-27T19:52:52.563Z,95807.25
2018-12-27T19:55:19.206Z,95798.67
2018-12-27T19:57:45.913Z,95808.78
2018-12-27T20:00:12.554Z,95813.58
2018-12-27T20:02:39.202Z,95811.58
2018-12-27T20:05:05.902Z,95810.42
2018-12-27T20:07:32.546Z,95815.11
2018-12-27T20:09:59.193Z,95814.21
2018-12-27T20:12:25.848Z,95812.05
2018-12-27T20:14:52.535Z,95806.77
2018-12-27T20:17:19.175Z,95802.47
2018-12-27T20:19:45.964Z,95803.70
2018-12-27T20:22:12.657Z,95809.55
2018-12-27T20:24:39.294Z,95810.55
2018-12-27T20:27:05.948Z,95810.55
2018-12-27T20:29:32.615Z,95805.36
2018-12-27T20:31:59.259Z,95812.31
2018-12-27T20:34:25.898Z,95807.77
2018-12-27T20:36:52.537Z,95810.94
2018-12-27T20:39:19.290Z,95807.89
2018-12-27T20:41:45.946Z,95809.41
2018-12-27T20:44:12.601Z,95808.65
2018-12-27T20:46:39.324Z,95806.88
2018-12-27T20:49:05.949Z,95806.38
2018-12-27T20:51:32.595Z,95798.42
2018-12-27T20:53:59.240Z,95797.53
2018-12-27T20:56:25.934Z,95796.31
2018-12-27T20:58:52.629Z,95796.19
2018-12-27T21:01:19.274Z,95791.91
2018-12-27T21:03:45.922Z,95794.80
2018-12-27T21:06:12.627Z,95792.16
2018-12-27T21:08:39.260Z,95795.45
2018-12-27T21:11:05.959Z,95788.48
2018-12-27T21:13:32.607Z,95785.55
2018-12-27T21:15:59.259Z,95787.97
2018-12-27T21:18:25.897Z,95787.34
2018-12-27T21:20:52.553Z,95782.26
2018-12-27T21:23:19.246Z,95771.64
2018-12-27T21:25:45.891Z,95782.77
2018-12-27T21:28:12.567Z,95773.30
2018-12-27T21:30:39.208Z,95771.41
2018-12-27T21:33:05.859Z,95768.13
2018-12-27T21:35:32.514Z,95772.06
2018-12-27T21:37:59.175Z,95774.45
2018-12-27T21:40:25.826Z,95773.57
2018-12-27T21:42:52.530Z,95758.67
2018-12-27T21:45:19.168Z,95763.35
2018-12-27T21:47:45.809Z,95757.02
2018-12-27T21:50:12.569Z,95750.84
2018-12-27T21:52:39.217Z,95751.22
2018-12-27T21:55:05.917Z,95756.79
2018-12-27T21:57:32.554Z,95748.56
2018-12-27T21:59:59.194Z,95747.06
2018-12-27T22:02:25.888Z,95757.80
2018-12-27T22:04:52.530Z,95750.85
2018-12-27T22:07:19.177Z,95750.97
2018-12-27T22:09:45.885Z,95748.17
2018-12-27T22:12:12.566Z,95741.88
2018-12-27T22:14:39.208Z,95744.53
2018-12-27T22:17:05.898Z,95739.20
2018-12-27T22:19:32.550Z,95740.36
2018-12-27T22:21:59.253Z,95732.91
2018-12-27T22:24:25.920Z,95741.11
2018-12-27T22:26:52.583Z,95744.16
2018-12-27T22:29:19.278Z,95742.63
2018-12-27T22:31:45.919Z,95737.06
2018-12-27T22:34:12.613Z,95738.98
2018-12-27T22:36:39.264Z,95735.94
2018-12-27T22:39:05.930Z,95729.10
2018-12-27T22:41:32.626Z,95723.81
2018-12-27T22:43:59.348Z,95726.97
2018-12-27T22:46:26.060Z,95721.02
2018-12-27T22:48:52.757Z,95711.52
2018-12-27T22:51:19.414Z,95709.01
2018-12-27T22:53:46.072Z,95696.62
2018-12-27T22:56:12.714Z,95698.52
2018-12-27T22:58:39.365Z,95706.61
2018-12-27T23:01:06.078Z,95709.26
2018-12-27T23:03:32.789Z,95710.25
2018-12-27T23:05:59.485Z,95713.92
2018-12-27T23:08:26.127Z,95717.57
2018-12-27T23:10:52.826Z,95723.28
2018-12-27T23:13:19.471Z,95725.55
2018-12-27T23:15:46.168Z,95716.95
2018-12-27T23:18:13.113Z,95719.97
2018-12-27T23:20:39.747Z,95713.40
2018-12-27T23:23:06.454Z,95714.69
2018-12-27T23:25:33.093Z,95713.55
2018-12-27T23:27:59.727Z,95711.54
2018-12-27T23:30:26.373Z,95709.37
2018-12-27T23:32:53.145Z,95712.67
2018-12-27T23:35:19.797Z,95707.86
2018-12-27T23:37:46.445Z,95712.01
2018-12-27T23:40:13.143Z,95705.20
2018-12-27T23:42:39.780Z,95704.45
2018-12-27T23:45:06.467Z,95709.76
2018-12-27T23:47:33.114Z,95706.98
2018-12-27T23:49:59.813Z,95707.97
2018-12-27T23:52:26.458Z,95707.47
2018-12-27T23:54:53.232Z,95715.95
2018-12-27T23:57:22.007Z,95717.47
2018-12-27T23:59:46.563Z,95711.41
